Time;durP1;ratioP1;P1;durP2;ratioP2;P2;SDS_P1;SDS_P2;PMS_P1;PMS_P2;Temp;Humidity;BMP_temperature;BMP_pressure;BME280_temperature;BME280_humidity;BME280_pressure;Samples;Min_cycle;Max_cycle;Signal;HPM_P1;HPM_P2
2022/10/30 00:01:05;;;;;;;20.23;14.97;;;15.80;99.90;;;;;;5044140;28;20482;-82
2022/10/30 00:03:32;;;;;;;21.10;16.07;;;16.00;99.90;;;;;;5045423;28;20459;-84
2022/10/30 00:05:59;;;;;;;20.93;13.80;;;15.90;99.90;;;;;;5041764;28;20489;-83
2022/10/30 00:08:26;;;;;;;23.73;15.80;;;16.00;99.90;;;;;;5046462;28;20489;-82
2022/10/30 00:10:53;;;;;;;24.33;15.10;;;16.10;99.90;;;;;;5054298;28;20466;-83
2022/10/30 00:13:21;;;;;;;22.03;15.60;;;16.00;99.90;;;;;;5053861;28;20505;-83
2022/10/30 00:15:50;;;;;;;23.30;14.93;;;16.00;99.90;;;;;;5043135;28;20491;-82
2022/10/30 00:18:17;;;;;;;21.10;15.53;;;15.90;99.90;;;;;;5040334;28;21019;-84
2022/10/30 00:20:53;;;;;;;21.43;15.40;;;16.00;99.90;;;;;;5050513;28;20549;-81
2022/10/30 00:23:20;;;;;;;25.13;18.03;;;15.90;99.90;;;;;;5042688;28;20466;-83
2022/10/30 00:25:47;;;;;;;23.63;14.00;;;15.90;99.90;;;;;;5046809;28;20916;-84
2022/10/30 00:28:14;;;;;;;18.87;14.90;;;15.90;99.90;;;;;;5046549;28;20474;-85
2022/10/30 00:30:42;;;;;;;25.23;15.10;;;15.80;99.90;;;;;;5050625;28;20473;-85
2022/10/30 00:33:09;;;;;;;29.10;17.20;;;15.90;99.90;;;;;;5050407;28;20898;-83
2022/10/30 00:35:36;;;;;;;27.13;17.10;;;15.90;99.90;;;;;;5040685;28;20510;-82
2022/10/30 00:38:02;;;;;;;26.43;18.80;;;15.70;99.90;;;;;;5056063;28;20465;-81
2022/10/30 00:40:29;;;;;;;24.43;15.27;;;15.80;99.90;;;;;;5057359;28;20498;-81
2022/10/30 00:42:56;;;;;;;24.75;16.75;;;15.70;99.90;;;;;;5048221;28;20540;-79
2022/10/30 00:45:23;;;;;;;22.73;13.70;;;15.70;99.90;;;;;;5051830;28;20212;-79
2022/10/30 00:47:55;;;;;;;21.30;17.15;;;15.70;99.90;;;;;;5057199;28;20493;-81
2022/10/30 00:50:26;;;;;;;21.10;14.87;;;15.60;99.90;;;;;;5055212;28;20208;-84
2022/10/30 00:52:58;;;;;;;24.97;17.57;;;15.60;99.90;;;;;;5041751;28;20553;-85
2022/10/30 00:55:30;;;;;;;25.80;17.20;;;15.50;99.90;;;;;;5039776;28;20469;-84
2022/10/30 00:57:59;;;;;;;21.73;15.23;;;15.40;99.90;;;;;;5039902;28;20461;-83
2022/10/30 01:00:29;;;;;;;21.70;16.85;;;15.40;99.90;;;;;;5037875;28;20547;-80
2022/10/30 01:02:58;;;;;;;25.07;15.63;;;15.40;99.90;;;;;;5048633;28;20239;-80
2022/10/30 01:05:27;;;;;;;19.65;15.60;;;15.40;99.90;;;;;;5052408;28;20516;-81
2022/10/30 01:07:54;;;;;;;25.08;15.75;;;15.30;99.90;;;;;;5040576;28;20217;-83
2022/10/30 01:10:22;;;;;;;28.30;17.95;;;15.30;99.90;;;;;;5044829;28;20198;-80
2022/10/30 01:12:51;;;;;;;23.73;19.45;;;15.20;99.90;;;;;;5045017;28;20240;-82
2022/10/30 01:15:23;;;;;;;19.88;17.23;;;15.10;99.90;;;;;;5050437;28;20209;-80
2022/10/30 01:18:21;;;;;;;26.70;16.38;;;15.10;99.90;;;;;;5050730;28;20205;-78
2022/10/30 01:21:11;;;;;;;24.77;16.65;;;15.00;99.90;;;;;;5052150;28;20217;-81
2022/10/30 01:23:49;;;;;;;28.20;16.27;;;15.00;99.90;;;;;;5030981;28;20227;-79
2022/10/30 01:26:27;;;;;;;24.48;16.73;;;15.00;99.90;;;;;;5057843;28;20197;-81
2022/10/30 01:29:08;;;;;;;29.50;16.50;;;14.90;99.90;;;;;;5055162;28;20217;-78
2022/10/30 01:31:46;;;;;;;23.45;16.83;;;15.10;99.90;;;;;;5056640;28;20217;-79
2022/10/30 01:34:19;;;;;;;25.05;17.15;;;15.00;99.90;;;;;;5053057;28;20185;-78
2022/10/30 01:36:54;;;;;;;29.77;16.20;;;15.00;99.90;;;;;;5053651;28;20207;-80
2022/10/30 01:39:23;;;;;;;27.35;17.20;;;15.00;99.90;;;;;;5049483;28;20252;-79
2022/10/30 01:41:50;;;;;;;18.33;14.75;;;15.00;99.90;;;;;;5054964;28;20220;-79
2022/10/30 01:44:20;;;;;;;22.13;15.88;;;15.00;99.90;;;;;;5053672;28;20210;-80
2022/10/30 01:47:14;;;;;;;28.83;19.27;;;15.10;99.90;;;;;;5053775;28;20202;-80
2022/10/30 01:50:00;;;;;;;21.08;16.08;;;15.00;99.90;;;;;;5051464;28;20232;-78
2022/10/30 01:52:38;;;;;;;22.67;15.23;;;15.00;99.90;;;;;;5053647;28;20217;-80
2022/10/30 01:55:13;;;;;;;22.23;14.23;;;15.10;99.90;;;;;;5048861;28;20191;-81
2022/10/30 01:57:48;;;;;;;19.07;14.33;;;15.10;99.90;;;;;;5052443;28;20437;-78
2022/10/30 02:00:18;;;;;;;18.60;14.33;;;15.20;99.90;;;;;;5049176;28;20439;-81
2022/10/30 02:02:46;;;;;;;19.40;12.95;;;15.30;99.90;;;;;;5046994;28;20456;-80
2022/10/30 02:05:21;;;;;;;13.20;11.80;;;15.30;99.90;;;;;;5048162;28;20203;-81
2022/10/30 02:07:48;;;;;;;18.47;12.10;;;15.50;99.90;;;;;;5050270;28;20465;-82
2022/10/30 02:10:15;;;;;;;17.80;12.80;;;15.50;99.90;;;;;;5049845;28;20452;-80
2022/10/30 02:12:42;;;;;;;17.33;12.60;;;15.60;99.90;;;;;;5050003;28;20480;-84
2022/10/30 02:15:11;;;;;;;22.17;13.63;;;15.70;99.90;;;;;;5038520;28;20453;-82
2022/10/30 02:17:39;;;;;;;20.45;11.85;;;15.60;99.90;;;;;;5043443;28;20515;-82
2022/10/30 02:20:07;;;;;;;13.95;10.80;;;15.60;99.90;;;;;;5037315;28;20230;-83
2022/10/30 02:22:35;;;;;;;20.63;12.15;;;15.60;99.90;;;;;;5039534;28;20250;-82
2022/10/30 02:25:02;;;;;;;15.05;11.43;;;15.60;99.90;;;;;;5034664;28;20211;-83
2022/10/30 02:27:29;;;;;;;17.25;11.40;;;15.60;99.90;;;;;;5045243;28;20234;-82
2022/10/30 02:29:55;;;;;;;16.80;12.57;;;15.60;99.90;;;;;;5032931;28;20306;-83
2022/10/30 02:32:22;;;;;;;23.63;12.02;;;15.50;99.90;;;;;;5034198;28;20277;-84
2022/10/30 02:34:49;;;;;;;26.67;11.90;;;15.50;99.90;;;;;;5038629;28;20207;-81
2022/10/30 02:37:16;;;;;;;13.83;10.20;;;15.50;99.90;;;;;;5038007;28;20449;-81
2022/10/30 02:39:44;;;;;;;15.67;10.90;;;15.60;99.90;;;;;;5033912;28;20466;-83
2022/10/30 02:42:11;;;;;;;22.10;10.00;;;15.60;99.90;;;;;;5040180;28;20520;-84
2022/10/30 02:44:38;;;;;;;19.47;10.30;;;15.60;99.90;;;;;;5035133;28;20459;-84
2022/10/30 02:47:05;;;;;;;15.90;10.27;;;15.60;99.90;;;;;;5031820;28;20434;-84
2022/10/30 02:49:32;;;;;;;23.17;11.53;;;15.60;99.90;;;;;;5027002;28;20481;-83
2022/10/30 02:51:59;;;;;;;12.07;8.80;;;15.70;99.90;;;;;;5031711;28;20508;-83
2022/10/30 02:54:26;;;;;;;15.07;9.37;;;15.70;99.90;;;;;;5035197;28;20544;-83
2022/10/30 02:56:54;;;;;;;15.50;10.50;;;15.70;99.90;;;;;;5030454;28;20477;-84
2022/10/30 02:59:21;;;;;;;19.20;10.20;;;15.70;99.90;;;;;;5031072;28;20533;-85
2022/10/30 03:01:47;;;;;;;17.20;10.13;;;15.70;99.90;;;;;;5027922;28;20554;-84
2022/10/30 03:04:14;;;;;;;16.20;9.50;;;15.80;99.90;;;;;;5033726;28;20478;-83
2022/10/30 03:06:41;;;;;;;13.07;9.40;;;15.80;99.90;;;;;;5039318;28;20266;-81
2022/10/30 03:09:08;;;;;;;22.37;10.37;;;15.80;99.90;;;;;;5040654;28;20435;-78
2022/10/30 03:11:35;;;;;;;16.90;9.50;;;15.70;99.90;;;;;;5048185;28;20470;-80
2022/10/30 03:14:03;;;;;;;12.50;8.37;;;15.80;99.90;;;;;;5052477;28;20478;-82
2022/10/30 03:16:30;;;;;;;17.23;9.90;;;15.90;99.90;;;;;;5052474;28;20511;-81
2022/10/30 03:18:58;;;;;;;12.47;7.90;;;15.90;99.90;;;;;;5056147;28;20458;-79
2022/10/30 03:21:27;;;;;;;11.63;8.93;;;15.90;99.90;;;;;;5052462;28;20504;-80
2022/10/30 03:23:54;;;;;;;13.57;7.80;;;15.90;99.90;;;;;;5055462;28;20477;-82
2022/10/30 03:26:22;;;;;;;14.33;8.20;;;16.00;99.90;;;;;;5050536;28;20505;-82
2022/10/30 03:28:49;;;;;;;17.10;8.47;;;16.00;99.90;;;;;;5049370;28;20469;-81
2022/10/30 03:31:19;;;;;;;13.40;8.60;;;16.20;99.90;;;;;;5050944;28;20478;-84
2022/10/30 03:33:46;;;;;;;14.73;9.87;;;16.10;99.90;;;;;;5049967;28;20475;-80
2022/10/30 03:36:15;;;;;;;13.10;9.23;;;16.10;99.90;;;;;;5056006;28;20442;-81
2022/10/30 03:38:42;;;;;;;13.63;8.73;;;16.10;99.90;;;;;;5055370;28;20511;-80
2022/10/30 03:41:09;;;;;;;11.73;9.40;;;16.10;99.90;;;;;;5044382;28;20526;-83
2022/10/30 03:43:36;;;;;;;12.10;7.70;;;16.10;99.90;;;;;;5044507;28;20565;-82
2022/10/30 03:46:03;;;;;;;27.23;8.80;;;16.10;99.90;;;;;;5045621;28;20452;-83
2022/10/30 03:48:32;;;;;;;12.47;8.40;;;16.20;99.90;;;;;;5037820;28;20455;-85
2022/10/30 03:51:00;;;;;;;12.50;7.67;;;16.20;99.90;;;;;;5033537;28;20455;-80
2022/10/30 03:53:30;;;;;;;14.93;10.30;;;16.10;99.90;;;;;;5032095;28;20896;-83
2022/10/30 03:55:59;;;;;;;14.57;8.87;;;16.20;99.90;;;;;;5031840;28;20462;-84
2022/10/30 03:58:26;;;;;;;14.90;9.20;;;16.20;99.90;;;;;;5036156;28;20534;-84
2022/10/30 04:00:53;;;;;;;15.20;8.50;;;16.20;99.90;;;;;;5034565;28;20875;-83
2022/10/30 04:03:20;;;;;;;14.10;9.30;;;16.20;99.90;;;;;;5052487;28;20453;-80
2022/10/30 04:05:49;;;;;;;16.00;8.90;;;16.20;99.90;;;;;;5052074;28;20443;-80
2022/10/30 04:08:16;;;;;;;16.90;9.53;;;16.40;99.90;;;;;;5055792;28;20466;-81
2022/10/30 04:10:44;;;;;;;18.17;8.70;;;16.30;99.90;;;;;;5052794;28;20466;-80
2022/10/30 04:13:12;;;;;;;14.80;9.60;;;16.30;99.90;;;;;;5048094;28;20505;-81
2022/10/30 04:15:39;;;;;;;17.73;10.13;;;16.20;99.90;;;;;;5050338;28;20457;-80
2022/10/30 04:18:07;;;;;;;11.03;7.30;;;16.20;99.90;;;;;;5044662;28;20446;-83
2022/10/30 04:20:34;;;;;;;15.77;8.50;;;16.20;99.90;;;;;;5058943;28;20431;-84
2022/10/30 04:23:05;;;;;;;12.00;8.10;;;16.20;99.90;;;;;;5044592;28;20492;-82
2022/10/30 04:25:34;;;;;;;16.83;8.67;;;16.20;99.90;;;;;;5051181;28;20511;-82
2022/10/30 04:28:01;;;;;;;14.90;8.13;;;16.20;99.90;;;;;;5041749;28;20486;-82
2022/10/30 04:30:32;;;;;;;12.87;8.60;;;16.10;99.90;;;;;;5045522;28;20454;-84
2022/10/30 04:33:00;;;;;;;19.83;10.40;;;16.20;99.90;;;;;;5033845;28;20555;-85
2022/10/30 04:35:30;;;;;;;18.00;7.70;;;16.20;99.90;;;;;;5042118;28;20454;-82
2022/10/30 04:37:59;;;;;;;14.00;9.30;;;16.10;99.90;;;;;;5032439;28;20780;-82
2022/10/30 04:40:28;;;;;;;13.93;8.90;;;16.00;99.90;;;;;;5033030;28;20514;-82
2022/10/30 04:42:55;;;;;;;13.53;8.77;;;15.90;99.90;;;;;;5040146;28;20486;-83
2022/10/30 04:45:22;;;;;;;15.23;8.93;;;16.00;99.90;;;;;;5034270;28;20460;-84
2022/10/30 04:47:49;;;;;;;17.80;9.60;;;16.10;99.90;;;;;;5035871;28;20457;-83
2022/10/30 04:50:17;;;;;;;17.20;9.17;;;15.90;99.90;;;;;;5035576;28;20463;-83
2022/10/30 04:52:44;;;;;;;13.77;8.95;;;15.90;99.90;;;;;;5038749;28;20498;-81
2022/10/30 04:55:12;;;;;;;15.27;10.20;;;15.80;99.90;;;;;;5034928;28;20287;-85
2022/10/30 04:57:40;;;;;;;12.10;8.13;;;15.80;99.90;;;;;;5039316;28;20450;-82
2022/10/30 05:00:09;;;;;;;13.23;8.50;;;15.80;99.90;;;;;;5031198;28;20446;-84
2022/10/30 05:02:36;;;;;;;12.60;8.20;;;15.70;99.90;;;;;;5039647;28;20231;-82
2022/10/30 05:05:04;;;;;;;14.30;9.50;;;15.70;99.90;;;;;;5030064;28;20199;-85
2022/10/30 05:07:31;;;;;;;14.60;7.80;;;15.70;99.90;;;;;;5028319;28;20478;-85
2022/10/30 05:09:57;;;;;;;13.83;9.07;;;15.70;99.90;;;;;;5032053;28;20458;-81
2022/10/30 05:12:24;;;;;;;11.40;8.77;;;15.70;99.90;;;;;;5050576;28;20526;-82
2022/10/30 05:14:52;;;;;;;9.73;8.20;;;15.70;99.90;;;;;;5040055;28;20451;-83
2022/10/30 05:17:20;;;;;;;13.80;10.00;;;15.70;99.90;;;;;;5049544;28;20509;-81
2022/10/30 05:19:47;;;;;;;16.30;9.50;;;15.70;99.90;;;;;;5046548;28;20453;-81
2022/10/30 05:22:14;;;;;;;16.45;10.43;;;15.60;99.90;;;;;;5049186;28;20477;-79
2022/10/30 05:24:41;;;;;;;15.10;9.80;;;15.50;99.90;;;;;;5052059;28;20182;-79
2022/10/30 05:27:07;;;;;;;17.50;11.23;;;15.50;99.90;;;;;;5049733;28;20245;-81
2022/10/30 05:29:34;;;;;;;13.60;9.40;;;15.40;99.90;;;;;;5057804;28;20466;-80
2022/10/30 05:32:02;;;;;;;22.73;10.23;;;15.50;99.90;;;;;;5046752;28;20516;-85
2022/10/30 05:34:29;;;;;;;15.77;10.15;;;15.50;99.90;;;;;;5032939;28;20343;-84
2022/10/30 05:36:56;;;;;;;11.10;9.20;;;15.50;99.90;;;;;;5046248;28;20212;-80
2022/10/30 05:39:23;;;;;;;21.70;9.65;;;15.50;99.90;;;;;;5049371;28;20450;-80
2022/10/30 05:41:50;;;;;;;11.43;8.48;;;15.50;99.90;;;;;;5054534;28;20289;-79
2022/10/30 05:44:16;;;;;;;12.77;9.87;;;15.60;99.90;;;;;;5049647;28;20224;-82
2022/10/30 05:46:43;;;;;;;11.93;8.73;;;15.60;99.90;;;;;;5031572;28;20526;-83
2022/10/30 05:49:11;;;;;;;15.30;9.87;;;15.60;99.90;;;;;;5038724;28;20456;-85
2022/10/30 05:51:38;;;;;;;16.60;8.70;;;15.60;99.90;;;;;;5038226;28;20477;-83
2022/10/30 05:54:05;;;;;;;13.00;9.67;;;15.60;99.90;;;;;;5041801;28;20473;-82
2022/10/30 05:56:32;;;;;;;20.43;9.30;;;15.50;99.90;;;;;;5037198;28;20452;-85
2022/10/30 05:58:59;;;;;;;15.43;10.17;;;15.50;99.90;;;;;;5030408;28;20458;-84
2022/10/30 06:01:26;;;;;;;15.00;8.83;;;15.50;99.90;;;;;;5033510;28;20482;-86
2022/10/30 06:03:53;;;;;;;17.95;9.10;;;15.40;99.90;;;;;;5038501;28;21029;-84
2022/10/30 06:06:21;;;;;;;17.10;10.18;;;15.40;99.90;;;;;;5030691;28;20239;-84
2022/10/30 06:08:48;;;;;;;12.13;9.15;;;15.40;99.90;;;;;;5036782;28;20243;-84
2022/10/30 06:11:15;;;;;;;13.55;9.68;;;15.40;99.90;;;;;;5029925;28;20203;-86
2022/10/30 06:13:41;;;;;;;13.43;9.55;;;15.40;99.90;;;;;;5037190;28;20234;-84
2022/10/30 06:16:08;;;;;;;18.20;11.82;;;15.30;99.90;;;;;;5030075;28;20199;-85
2022/10/30 06:18:35;;;;;;;15.55;10.07;;;15.50;99.90;;;;;;5026559;28;20302;-85
2022/10/30 06:21:02;;;;;;;20.52;10.88;;;15.30;99.90;;;;;;5031696;28;20272;-84
2022/10/30 06:23:30;;;;;;;18.70;9.82;;;15.30;99.90;;;;;;5029749;28;20317;-85
2022/10/30 06:25:57;;;;;;;13.52;9.63;;;15.20;99.90;;;;;;5031936;28;20226;-85
2022/10/30 06:28:24;;;;;;;19.63;11.65;;;15.10;99.90;;;;;;5031763;28;20267;-82
2022/10/30 06:30:51;;;;;;;14.02;10.75;;;15.10;99.90;;;;;;5029375;28;20226;-84
2022/10/30 06:33:17;;;;;;;13.67;9.63;;;15.20;99.90;;;;;;5031537;28;20658;-84
2022/10/30 06:35:44;;;;;;;16.40;11.40;;;15.10;99.90;;;;;;5031129;28;20551;-83
2022/10/30 06:38:11;;;;;;;17.52;10.75;;;15.10;99.90;;;;;;5035013;28;20457;-82
2022/10/30 06:40:40;;;;;;;17.50;11.23;;;15.10;99.90;;;;;;5027997;28;20290;-83
2022/10/30 06:43:06;;;;;;;31.20;11.67;;;15.10;99.90;;;;;;5033390;28;20528;-83
2022/10/30 06:45:35;;;;;;;18.57;10.87;;;15.10;99.90;;;;;;5052183;28;20472;-81
2022/10/30 06:48:02;;;;;;;15.23;11.27;;;15.10;99.90;;;;;;5046640;28;20473;-82
2022/10/30 06:50:29;;;;;;;27.02;11.13;;;15.10;99.90;;;;;;5054337;28;20193;-82
2022/10/30 06:52:56;;;;;;;18.80;11.38;;;15.10;99.90;;;;;;5052617;28;20282;-83
2022/10/30 06:55:23;;;;;;;19.20;11.10;;;15.10;99.90;;;;;;5048841;28;20237;-84
2022/10/30 06:57:55;;;;;;;13.95;10.73;;;15.10;99.90;;;;;;5049519;28;20204;-85
2022/10/30 07:00:23;;;;;;;14.93;11.15;;;15.10;99.90;;;;;;5041970;28;20253;-86
2022/10/30 07:02:57;;;;;;;13.90;9.77;;;15.30;99.90;;;;;;5042727;28;20317;-85
2022/10/30 07:05:24;;;;;;;18.47;10.30;;;15.50;99.90;;;;;;5036091;28;20203;-88
2022/10/30 07:07:51;;;;;;;19.50;10.70;;;15.90;99.90;;;;;;5033317;28;20531;-83
2022/10/30 07:10:18;;;;;;;21.60;10.83;;;16.20;99.90;;;;;;5034803;28;20496;-85
2022/10/30 07:12:52;;;;;;;19.23;9.70;;;16.70;99.90;;;;;;5040162;28;20486;-83
2022/10/30 07:15:20;;;;;;;16.70;9.60;;;17.30;99.90;;;;;;5034782;28;20825;-84
2022/10/30 07:17:55;;;;;;;14.77;9.23;;;17.70;99.90;;;;;;5050597;28;20473;-82
2022/10/30 07:20:21;;;;;;;13.30;8.90;;;18.30;99.90;;;;;;5047569;28;20617;-80
2022/10/30 07:22:48;;;;;;;17.10;9.60;;;18.70;99.90;;;;;;5046748;28;20494;-86
2022/10/30 07:25:16;;;;;;;11.33;8.30;;;19.20;99.90;;;;;;5038132;28;20447;-79
2022/10/30 07:27:44;;;;;;;17.13;9.00;;;19.70;99.90;;;;;;5036202;28;20450;-82
2022/10/30 07:30:12;;;;;;;20.60;10.57;;;20.20;99.90;;;;;;5038902;28;20443;-81
2022/10/30 07:32:40;;;;;;;12.40;8.77;;;20.60;99.90;;;;;;5035288;28;20498;-81
2022/10/30 07:35:10;;;;;;;12.60;8.73;;;21.20;99.90;;;;;;5047321;28;20443;-79
2022/10/30 07:37:37;;;;;;;13.60;8.13;;;21.50;99.90;;;;;;5046053;28;20606;-79
2022/10/30 07:40:05;;;;;;;17.03;8.30;;;22.00;99.90;;;;;;5046318;28;20883;-78
2022/10/30 07:42:32;;;;;;;15.00;10.17;;;22.30;99.90;;;;;;5043166;28;20541;-81
2022/10/30 07:45:03;;;;;;;22.97;8.30;;;22.50;99.90;;;;;;5032240;28;20455;-81
2022/10/30 07:47:30;;;;;;;12.13;7.97;;;22.70;99.90;;;;;;5038075;28;20471;-86
2022/10/30 07:49:59;;;;;;;14.10;8.83;;;23.00;99.90;;;;;;5040521;28;20448;-84
2022/10/30 07:52:26;;;;;;;10.50;8.37;;;23.30;99.60;;;;;;5032142;28;20482;-85
2022/10/30 07:54:52;;;;;;;17.57;10.07;;;23.70;98.60;;;;;;5037933;28;20447;-85
2022/10/30 07:57:19;;;;;;;17.73;9.33;;;23.80;97.70;;;;;;5043120;28;20440;-83
2022/10/30 07:59:46;;;;;;;21.93;9.60;;;23.50;97.10;;;;;;5050169;28;20469;-82
2022/10/30 08:02:14;;;;;;;20.77;8.77;;;23.40;97.10;;;;;;5049256;28;20459;-82
2022/10/30 08:04:40;;;;;;;15.13;10.70;;;23.60;97.50;;;;;;5053116;28;20462;-83
2022/10/30 08:07:09;;;;;;;18.13;10.30;;;23.60;96.80;;;;;;5056509;28;20427;-83
2022/10/30 08:09:36;;;;;;;15.30;8.87;;;24.00;96.70;;;;;;5045504;28;20454;-82
2022/10/30 08:12:03;;;;;;;16.87;9.03;;;24.10;96.00;;;;;;5058741;28;20481;-82
2022/10/30 08:14:29;;;;;;;15.47;8.37;;;24.30;95.90;;;;;;5051442;28;20436;-82
2022/10/30 08:16:57;;;;;;;12.43;8.73;;;24.80;95.20;;;;;;5059456;28;20438;-84
2022/10/30 08:19:27;;;;;;;19.10;9.40;;;25.00;94.10;;;;;;5052977;28;20473;-85
2022/10/30 08:22:01;;;;;;;16.37;8.90;;;24.30;94.30;;;;;;5045656;28;20428;-85
2022/10/30 08:24:30;;;;;;;15.67;9.00;;;23.80;95.50;;;;;;5055604;28;20432;-84
2022/10/30 08:26:58;;;;;;;21.20;9.07;;;24.10;95.50;;;;;;5045170;28;20522;-83
2022/10/30 08:29:25;;;;;;;15.73;9.27;;;24.50;95.20;;;;;;5058951;28;20451;-83
2022/10/30 08:31:51;;;;;;;18.33;9.30;;;25.10;94.40;;;;;;5047076;28;20541;-81
2022/10/30 08:34:18;;;;;;;14.27;9.30;;;25.40;93.70;;;;;;5054613;28;20471;-82
2022/10/30 08:36:47;;;;;;;14.40;9.47;;;25.70;92.90;;;;;;5049290;28;20459;-80
2022/10/30 08:39:14;;;;;;;9.40;8.50;;;25.60;92.20;;;;;;5038421;28;20499;-82
2022/10/30 08:41:42;;;;;;;14.10;10.50;;;25.80;92.90;;;;;;5043959;28;20515;-82
2022/10/30 08:44:09;;;;;;;13.57;9.60;;;26.00;92.30;;;;;;5040603;28;20463;-81
2022/10/30 08:46:36;;;;;;;15.37;8.93;;;26.30;92.10;;;;;;5039665;28;20995;-83
2022/10/30 08:49:04;;;;;;;15.70;9.10;;;26.20;92.10;;;;;;5040921;28;20715;-82
2022/10/30 08:51:32;;;;;;;17.27;10.53;;;26.20;91.40;;;;;;5049319;28;20471;-83
2022/10/30 08:53:59;;;;;;;17.63;9.60;;;25.50;92.20;;;;;;5026996;28;20484;-83
2022/10/30 08:56:26;;;;;;;16.23;10.30;;;25.40;92.80;;;;;;5039431;28;20499;-82
2022/10/30 08:58:54;;;;;;;20.63;10.20;;;25.60;92.40;;;;;;5043186;28;20537;-80
2022/10/30 09:01:21;;;;;;;16.33;9.07;;;25.60;92.80;;;;;;5028583;28;20535;-81
2022/10/30 09:03:58;;;;;;;14.47;10.37;;;26.10;92.00;;;;;;5031481;28;20551;-82
2022/10/30 09:06:25;;;;;;;12.03;8.90;;;26.00;92.00;;;;;;5024913;28;20455;-80
2022/10/30 09:08:52;;;;;;;21.27;9.83;;;26.50;91.80;;;;;;5056525;28;20455;-82
2022/10/30 09:11:19;;;;;;;14.90;9.40;;;26.70;91.30;;;;;;5059996;22;20994;-77
2022/10/30 09:13:46;;;;;;;19.20;10.07;;;26.50;90.80;;;;;;5020680;28;20487;-78
2022/10/30 09:16:17;;;;;;;16.30;9.30;;;26.50;91.20;;;;;;5021149;28;20535;-78
2022/10/30 09:18:45;;;;;;;16.10;9.77;;;26.70;91.50;;;;;;5008226;28;20466;-78
2022/10/30 09:21:13;;;;;;;15.80;10.03;;;27.10;91.10;;;;;;5019587;28;20864;-77
2022/10/30 09:23:42;;;;;;;10.87;9.10;;;27.60;90.40;;;;;;5019240;28;20432;-78
2022/10/30 09:26:09;;;;;;;14.77;10.30;;;27.80;90.10;;;;;;5018419;28;20490;-80
2022/10/30 09:28:36;;;;;;;16.10;10.53;;;27.70;88.90;;;;;;5019339;28;20460;-79
2022/10/30 09:31:04;;;;;;;11.20;9.90;;;27.20;89.80;;;;;;5014662;28;20447;-76
2022/10/30 09:33:32;;;;;;;14.40;9.27;;;27.30;90.00;;;;;;5013496;28;20566;-79
2022/10/30 09:36:02;;;;;;;19.37;9.80;;;27.30;89.80;;;;;;5012494;28;20525;-77
2022/10/30 09:38:30;;;;;;;13.40;9.70;;;27.10;90.50;;;;;;5012321;28;20447;-78
2022/10/30 09:41:26;;;;;;;14.83;9.00;;;27.10;90.40;;;;;;5010273;28;20543;-78
2022/10/30 09:44:05;;;;;;;20.13;10.07;;;27.20;90.50;;;;;;5011989;28;20922;-78
2022/10/30 09:46:46;;;;;;;14.30;9.93;;;27.50;90.30;;;;;;5007221;28;20472;-78
2022/10/30 09:49:29;;;;;;;16.10;9.17;;;27.50;90.10;;;;;;5014789;28;21115;-76
2022/10/30 09:52:20;;;;;;;17.37;10.50;;;27.80;89.80;;;;;;5018894;28;20547;-80
2022/10/30 09:55:00;;;;;;;14.97;9.33;;;27.40;90.20;;;;;;5008490;28;20507;-79
2022/10/30 09:57:35;;;;;;;16.60;10.77;;;27.30;90.80;;;;;;5006992;28;20510;-78
2022/10/30 10:00:06;;;;;;;21.57;10.27;;;26.80;91.00;;;;;;5008864;28;20516;-77
2022/10/30 10:02:36;;;;;;;14.17;9.70;;;26.30;91.80;;;;;;5010809;28;20502;-76
2022/10/30 10:05:21;;;;;;;16.60;11.40;;;26.00;92.70;;;;;;5012841;28;20459;-78
2022/10/30 10:07:52;;;;;;;18.37;10.17;;;26.00;92.70;;;;;;5010862;28;20479;-78
2022/10/30 10:10:25;;;;;;;17.87;10.20;;;26.00;92.70;;;;;;5002017;28;20448;-78
2022/10/30 10:12:54;;;;;;;18.47;10.47;;;25.60;93.10;;;;;;5002188;28;20571;-78
2022/10/30 10:15:32;;;;;;;18.07;10.40;;;25.10;93.80;;;;;;5004177;28;20535;-78
2022/10/30 10:18:02;;;;;;;16.13;10.90;;;25.30;93.90;;;;;;5007605;28;20878;-78
2022/10/30 10:20:36;;;;;;;12.17;10.07;;;25.20;94.60;;;;;;5013637;28;20453;-77
2022/10/30 10:23:17;;;;;;;14.53;9.40;;;25.20;94.30;;;;;;5014456;28;20563;-76
2022/10/30 10:25:51;;;;;;;13.30;10.37;;;25.10;94.60;;;;;;5016528;28;20459;-78
2022/10/30 10:28:47;;;;;;;23.13;10.90;;;25.00;94.70;;;;;;5018617;28;20516;-74
2022/10/30 10:31:24;;;;;;;16.30;9.87;;;24.70;95.40;;;;;;5009947;28;20448;-76
2022/10/30 10:34:25;;;;;;;19.50;11.13;;;24.60;96.10;;;;;;5019443;28;20501;-77
2022/10/30 10:37:01;;;;;;;25.20;12.00;;;24.30;96.40;;;;;;5011977;28;20483;-76
2022/10/30 10:39:41;;;;;;;25.03;10.17;;;24.00;97.60;;;;;;5000042;28;20878;-77
2022/10/30 10:42:20;;;;;;;13.30;8.77;;;23.90;98.00;;;;;;5003126;28;20927;-73
2022/10/30 10:45:00;;;;;;;17.33;9.77;;;23.90;98.70;;;;;;4991461;28;20479;-78
2022/10/30 10:47:44;;;;;;;17.13;9.93;;;24.00;98.30;;;;;;5012757;28;20933;-79
2022/10/30 10:50:24;;;;;;;17.70;8.67;;;24.10;98.30;;;;;;5013983;28;20548;-74
2022/10/30 10:52:57;;;;;;;17.70;9.70;;;23.70;98.10;;;;;;5008803;28;20468;-78
2022/10/30 10:55:28;;;;;;;20.70;10.00;;;23.40;99.40;;;;;;5010156;28;20451;-79
2022/10/30 10:58:02;;;;;;;17.93;10.00;;;23.30;99.90;;;;;;5016680;28;20547;-75
2022/10/30 11:00:30;;;;;;;16.87;10.17;;;23.20;99.90;;;;;;5015121;28;20456;-79
2022/10/30 11:03:03;;;;;;;13.07;8.87;;;23.20;99.90;;;;;;5013987;28;20471;-78
2022/10/30 11:05:35;;;;;;;20.90;10.13;;;23.20;99.90;;;;;;5012745;28;20479;-75
2022/10/30 11:08:12;;;;;;;18.33;9.87;;;23.30;99.90;;;;;;5019492;28;20451;-76
2022/10/30 11:10:39;;;;;;;20.53;9.47;;;23.30;99.90;;;;;;5013582;28;20499;-77
2022/10/30 11:13:06;;;;;;;20.57;8.70;;;23.20;99.90;;;;;;5015693;28;21162;-75
2022/10/30 11:15:46;;;;;;;12.50;9.07;;;23.00;99.90;;;;;;5013953;28;20444;-75
2022/10/30 11:18:14;;;;;;;17.03;10.63;;;23.00;99.90;;;;;;5016589;28;20505;-78
2022/10/30 11:20:48;;;;;;;14.17;9.33;;;22.90;99.90;;;;;;5010357;28;20506;-77
2022/10/30 11:23:34;;;;;;;20.03;9.97;;;23.00;99.90;;;;;;5014814;28;20542;-78
2022/10/30 11:26:02;;;;;;;17.17;9.70;;;23.00;99.90;;;;;;5008300;28;20938;-75
2022/10/30 11:28:41;;;;;;;14.43;9.50;;;22.80;99.90;;;;;;5011915;28;20951;-76
2022/10/30 11:31:19;;;;;;;20.53;9.90;;;22.70;99.90;;;;;;5010248;28;20526;-77
2022/10/30 11:33:47;;;;;;;20.80;10.60;;;22.60;99.90;;;;;;5016422;28;20490;-77
2022/10/30 11:36:16;;;;;;;15.37;11.53;;;22.40;99.90;;;;;;5013644;28;20436;-75
2022/10/30 11:38:56;;;;;;;15.90;9.93;;;22.30;99.90;;;;;;5017172;28;20502;-80
2022/10/30 11:41:23;;;;;;;23.47;13.30;;;22.30;99.90;;;;;;5013983;28;20466;-76
2022/10/30 11:43:50;;;;;;;14.70;8.43;;;22.40;99.90;;;;;;5016255;28;20468;-77
2022/10/30 11:46:23;;;;;;;14.37;8.47;;;22.50;99.90;;;;;;5009491;28;20471;-76
2022/10/30 11:48:53;;;;;;;10.70;8.67;;;22.60;99.90;;;;;;5016294;28;20428;-74
2022/10/30 11:51:35;;;;;;;15.13;9.27;;;22.70;99.90;;;;;;5023301;28;20428;-78
2022/10/30 11:54:04;;;;;;;22.03;9.93;;;22.90;99.90;;;;;;4994598;28;20537;-77
2022/10/30 11:56:34;;;;;;;14.90;9.00;;;22.80;99.90;;;;;;5015133;28;21022;-76
2022/10/30 11:59:03;;;;;;;14.77;10.10;;;22.90;99.90;;;;;;5010549;28;20498;-79
2022/10/30 12:01:34;;;;;;;24.37;10.37;;;22.80;99.90;;;;;;5006782;28;20504;-76
2022/10/30 12:04:15;;;;;;;13.23;8.80;;;22.80;99.90;;;;;;5012116;28;20428;-75
2022/10/30 12:06:43;;;;;;;18.20;9.43;;;22.80;99.90;;;;;;5008716;28;20450;-76
2022/10/30 12:09:21;;;;;;;18.50;10.47;;;22.80;99.90;;;;;;5021048;28;20500;-78
2022/10/30 12:11:49;;;;;;;14.80;9.57;;;22.50;99.90;;;;;;5008670;28;20918;-75
2022/10/30 12:14:20;;;;;;;16.40;9.07;;;22.60;99.90;;;;;;5016516;28;20562;-78
2022/10/30 12:16:48;;;;;;;12.73;8.53;;;22.70;99.90;;;;;;5020531;28;20440;-75
2022/10/30 12:19:17;;;;;;;18.43;9.30;;;22.60;99.90;;;;;;5019232;28;20464;-75
2022/10/30 12:21:47;;;;;;;15.60;10.63;;;22.50;99.90;;;;;;5012848;28;20464;-75
2022/10/30 12:24:20;;;;;;;18.23;9.57;;;22.30;99.90;;;;;;5011054;28;20441;-77
2022/10/30 12:26:50;;;;;;;15.33;9.00;;;22.20;99.90;;;;;;4997460;28;20448;-77
2022/10/30 12:29:20;;;;;;;18.50;9.63;;;22.30;99.90;;;;;;5011671;28;21030;-78
2022/10/30 12:31:58;;;;;;;20.60;10.43;;;22.30;99.90;;;;;;5006455;28;20874;-75
2022/10/30 12:34:36;;;;;;;23.90;10.13;;;22.20;99.90;;;;;;5010926;28;20978;-75
2022/10/30 12:37:09;;;;;;;24.63;9.03;;;22.20;99.90;;;;;;5003926;28;20472;-77
2022/10/30 12:39:49;;;;;;;19.03;9.63;;;22.30;99.90;;;;;;4996044;28;20445;-76
2022/10/30 12:42:19;;;;;;;13.27;9.40;;;22.30;99.90;;;;;;4989034;28;20468;-73
2022/10/30 12:44:51;;;;;;;18.57;9.50;;;22.40;99.90;;;;;;5009242;28;20931;-74
2022/10/30 12:47:25;;;;;;;11.30;7.93;;;22.50;99.90;;;;;;5012653;28;20476;-76